Dalhart, Texas
Current Conditions -  °F | °C
As of 1:53 AM on Saturday 29 Nov 2014 (Local Time) from KDHT Reporting Station
Clear Clear  
Wind Chill: 30°   Ceiling: Unl
Heat Index: 38°   Visibility: 10mi
Dew Point: 14°   Wind: 12mph
Humidity: 38%   Direction: 210°SSW
Pressure: 29.82"   Gusts: NA
Location:  36.06°N, 102.52°W
Report Text: KDHT 290753Z AUTO 21010KT 10SM CLR 03/M10 A2982 RMK AO2 SLP061 T00331100
Loading
Personal Weather Stations






























Interactive Weather Map New forecast layout! Learn more

10-Day Weather Forecast

Advertisements
Track Severe Weather on mobile